sensor_id;sensor_type;location;lat;lon;timestamp;P1;durP1;ratioP1;P2;durP2;ratioP2
44822;SDS011;51097;51.984;5.650;2023-06-04T00:02:17;1.63;;;1.40;;
44822;SDS011;51097;51.984;5.650;2023-06-04T00:04:43;2.53;;;1.27;;
44822;SDS011;51097;51.984;5.650;2023-06-04T00:07:09;3.80;;;1.17;;
44822;SDS011;51097;51.984;5.650;2023-06-04T00:09:34;2.30;;;1.38;;
44822;SDS011;51097;51.984;5.650;2023-06-04T00:12:00;2.00;;;1.20;;
44822;SDS011;51097;51.984;5.650;2023-06-04T00:14:25;4.32;;;1.42;;
44822;SDS011;51097;51.984;5.650;2023-06-04T00:16:51;2.70;;;1.45;;
44822;SDS011;51097;51.984;5.650;2023-06-04T00:19:16;2.20;;;1.48;;
44822;SDS011;51097;51.984;5.650;2023-06-04T00:21:42;3.05;;;1.58;;
44822;SDS011;51097;51.984;5.650;2023-06-04T00:24:08;5.55;;;1.30;;
44822;SDS011;51097;51.984;5.650;2023-06-04T00:26:33;2.17;;;1.20;;
44822;SDS011;51097;51.984;5.650;2023-06-04T00:29:00;2.50;;;1.25;;
44822;SDS011;51097;51.984;5.650;2023-06-04T00:31:26;1.58;;;1.33;;
44822;SDS011;51097;51.984;5.650;2023-06-04T00:33:51;3.70;;;1.13;;
44822;SDS011;51097;51.984;5.650;2023-06-04T00:36:17;5.18;;;1.45;;
44822;SDS011;51097;51.984;5.650;2023-06-04T00:38:43;1.98;;;1.27;;
44822;SDS011;51097;51.984;5.650;2023-06-04T00:41:08;2.85;;;1.42;;
44822;SDS011;51097;51.984;5.650;2023-06-04T00:43:34;3.28;;;1.48;;
44822;SDS011;51097;51.984;5.650;2023-06-04T00:46:01;2.20;;;1.40;;
44822;SDS011;51097;51.984;5.650;2023-06-04T00:48:28;3.00;;;1.40;;
44822;SDS011;51097;51.984;5.650;2023-06-04T00:50:55;3.47;;;1.48;;
44822;SDS011;51097;51.984;5.650;2023-06-04T00:53:21;2.97;;;1.27;;
44822;SDS011;51097;51.984;5.650;2023-06-04T00:55:49;4.22;;;1.33;;
44822;SDS011;51097;51.984;5.650;2023-06-04T00:58:15;2.65;;;1.30;;
44822;SDS011;51097;51.984;5.650;2023-06-04T01:00:42;2.85;;;1.42;;
44822;SDS011;51097;51.984;5.650;2023-06-04T01:03:10;2.10;;;1.50;;
44822;SDS011;51097;51.984;5.650;2023-06-04T01:08:11;1.75;;;1.30;;
44822;SDS011;51097;51.984;5.650;2023-06-04T01:10:36;1.83;;;1.20;;
44822;SDS011;51097;51.984;5.650;2023-06-04T01:13:02;2.28;;;1.40;;
44822;SDS011;51097;51.984;5.650;2023-06-04T01:15:27;4.10;;;1.42;;
44822;SDS011;51097;51.984;5.650;2023-06-04T01:17:54;2.97;;;1.40;;
44822;SDS011;51097;51.984;5.650;2023-06-04T01:23:13;2.80;;;1.30;;
44822;SDS011;51097;51.984;5.650;2023-06-04T01:25:42;3.53;;;1.60;;
44822;SDS011;51097;51.984;5.650;2023-06-04T01:28:11;2.97;;;1.63;;
44822;SDS011;51097;51.984;5.650;2023-06-04T01:30:39;1.90;;;1.35;;
44822;SDS011;51097;51.984;5.650;2023-06-04T01:33:10;1.73;;;1.25;;
44822;SDS011;51097;51.984;5.650;2023-06-04T01:35:38;2.90;;;1.40;;
44822;SDS011;51097;51.984;5.650;2023-06-04T01:38:04;2.25;;;1.77;;
44822;SDS011;51097;51.984;5.650;2023-06-04T01:40:30;1.23;;;0.95;;
44822;SDS011;51097;51.984;5.650;2023-06-04T01:42:55;2.60;;;1.48;;
44822;SDS011;51097;51.984;5.650;2023-06-04T01:45:23;1.98;;;1.77;;
44822;SDS011;51097;51.984;5.650;2023-06-04T01:47:49;4.45;;;1.77;;
44822;SDS011;51097;51.984;5.650;2023-06-04T01:50:15;3.10;;;1.40;;
44822;SDS011;51097;51.984;5.650;2023-06-04T01:52:42;2.33;;;1.27;;
44822;SDS011;51097;51.984;5.650;2023-06-04T01:55:09;2.83;;;1.40;;
44822;SDS011;51097;51.984;5.650;2023-06-04T01:57:39;2.42;;;1.58;;
44822;SDS011;51097;51.984;5.650;2023-06-04T02:00:06;2.38;;;1.20;;
44822;SDS011;51097;51.984;5.650;2023-06-04T02:02:34;2.60;;;1.77;;
44822;SDS011;51097;51.984;5.650;2023-06-04T02:05:01;1.98;;;1.48;;
44822;SDS011;51097;51.984;5.650;2023-06-04T02:07:27;2.25;;;1.70;;
44822;SDS011;51097;51.984;5.650;2023-06-04T02:09:53;3.58;;;1.20;;
44822;SDS011;51097;51.984;5.650;2023-06-04T02:12:18;3.33;;;1.63;;
44822;SDS011;51097;51.984;5.650;2023-06-04T02:14:44;2.95;;;1.30;;
44822;SDS011;51097;51.984;5.650;2023-06-04T02:17:13;6.03;;;1.73;;
44822;SDS011;51097;51.984;5.650;2023-06-04T02:19:44;3.22;;;1.52;;
44822;SDS011;51097;51.984;5.650;2023-06-04T02:22:14;1.83;;;1.30;;
44822;SDS011;51097;51.984;5.650;2023-06-04T02:24:40;2.90;;;1.25;;
44822;SDS011;51097;51.984;5.650;2023-06-04T02:27:07;2.88;;;1.52;;
44822;SDS011;51097;51.984;5.650;2023-06-04T02:29:34;2.45;;;1.55;;
44822;SDS011;51097;51.984;5.650;2023-06-04T02:32:00;5.05;;;1.70;;
44822;SDS011;51097;51.984;5.650;2023-06-04T02:34:26;1.40;;;1.30;;
44822;SDS011;51097;51.984;5.650;2023-06-04T02:36:52;1.88;;;1.67;;
44822;SDS011;51097;51.984;5.650;2023-06-04T02:39:20;3.10;;;1.50;;
44822;SDS011;51097;51.984;5.650;2023-06-04T02:41:46;2.92;;;1.65;;
44822;SDS011;51097;51.984;5.650;2023-06-04T02:44:11;2.03;;;1.83;;
44822;SDS011;51097;51.984;5.650;2023-06-04T02:46:37;2.45;;;1.30;;
44822;SDS011;51097;51.984;5.650;2023-06-04T02:49:03;2.80;;;1.17;;
44822;SDS011;51097;51.984;5.650;2023-06-04T02:51:29;2.33;;;1.40;;
44822;SDS011;51097;51.984;5.650;2023-06-04T02:53:55;2.65;;;1.63;;
44822;SDS011;51097;51.984;5.650;2023-06-04T02:56:21;3.03;;;1.92;;
44822;SDS011;51097;51.984;5.650;2023-06-04T02:58:50;2.72;;;1.50;;
44822;SDS011;51097;51.984;5.650;2023-06-04T03:01:18;2.38;;;1.05;;
44822;SDS011;51097;51.984;5.650;2023-06-04T03:03:45;1.25;;;1.10;;
44822;SDS011;51097;51.984;5.650;2023-06-04T03:06:10;1.95;;;1.40;;
44822;SDS011;51097;51.984;5.650;2023-06-04T03:08:39;3.90;;;1.48;;
44822;SDS011;51097;51.984;5.650;2023-06-04T03:11:05;1.83;;;1.40;;
44822;SDS011;51097;51.984;5.650;2023-06-04T03:13:30;3.63;;;1.50;;
44822;SDS011;51097;51.984;5.650;2023-06-04T03:15:56;4.88;;;2.28;;
44822;SDS011;51097;51.984;5.650;2023-06-04T03:18:25;4.97;;;1.60;;
44822;SDS011;51097;51.984;5.650;2023-06-04T03:20:51;5.97;;;1.83;;
44822;SDS011;51097;51.984;5.650;2023-06-04T03:23:18;1.55;;;1.40;;
44822;SDS011;51097;51.984;5.650;2023-06-04T03:25:44;2.55;;;1.67;;
44822;SDS011;51097;51.984;5.650;2023-06-04T03:28:10;1.95;;;1.40;;
44822;SDS011;51097;51.984;5.650;2023-06-04T03:30:36;3.80;;;1.58;;
44822;SDS011;51097;51.984;5.650;2023-06-04T03:33:01;1.70;;;1.40;;
44822;SDS011;51097;51.984;5.650;2023-06-04T03:35:27;3.67;;;1.63;;
44822;SDS011;51097;51.984;5.650;2023-06-04T03:37:53;2.00;;;1.42;;
44822;SDS011;51097;51.984;5.650;2023-06-04T03:40:19;4.10;;;1.80;;
44822;SDS011;51097;51.984;5.650;2023-06-04T03:42:44;3.10;;;1.75;;
44822;SDS011;51097;51.984;5.650;2023-06-04T03:45:10;2.03;;;1.50;;
44822;SDS011;51097;51.984;5.650;2023-06-04T03:47:36;2.58;;;1.27;;
44822;SDS011;51097;51.984;5.650;2023-06-04T03:50:02;2.88;;;2.05;;
44822;SDS011;51097;51.984;5.650;2023-06-04T03:52:28;4.70;;;2.05;;
44822;SDS011;51097;51.984;5.650;2023-06-04T03:54:54;2.60;;;1.40;;
44822;SDS011;51097;51.984;5.650;2023-06-04T03:57:20;1.45;;;1.35;;
44822;SDS011;51097;51.984;5.650;2023-06-04T03:59:45;2.63;;;1.70;;
44822;SDS011;51097;51.984;5.650;2023-06-04T04:02:11;3.72;;;1.85;;
44822;SDS011;51097;51.984;5.650;2023-06-04T04:04:36;2.83;;;1.65;;
44822;SDS011;51097;51.984;5.650;2023-06-04T04:07:02;2.55;;;2.35;;
44822;SDS011;51097;51.984;5.650;2023-06-04T04:09:27;4.32;;;1.83;;
44822;SDS011;51097;51.984;5.650;2023-06-04T04:11:53;2.45;;;1.63;;
44822;SDS011;51097;51.984;5.650;2023-06-04T04:14:18;3.00;;;1.50;;
44822;SDS011;51097;51.984;5.650;2023-06-04T04:16:44;2.03;;;1.67;;
44822;SDS011;51097;51.984;5.650;2023-06-04T04:19:10;3.85;;;1.50;;
44822;SDS011;51097;51.984;5.650;2023-06-04T04:21:36;4.15;;;1.58;;
44822;SDS011;51097;51.984;5.650;2023-06-04T04:24:03;3.70;;;2.20;;
44822;SDS011;51097;51.984;5.650;2023-06-04T04:26:28;2.50;;;1.67;;
44822;SDS011;51097;51.984;5.650;2023-06-04T04:28:54;2.70;;;1.95;;
44822;SDS011;51097;51.984;5.650;2023-06-04T04:31:23;5.60;;;2.03;;
44822;SDS011;51097;51.984;5.650;2023-06-04T04:33:49;2.63;;;1.55;;
44822;SDS011;51097;51.984;5.650;2023-06-04T04:36:16;5.05;;;2.28;;
44822;SDS011;51097;51.984;5.650;2023-06-04T04:38:43;2.25;;;1.50;;
44822;SDS011;51097;51.984;5.650;2023-06-04T04:41:18;3.42;;;1.90;;
44822;SDS011;51097;51.984;5.650;2023-06-04T04:43:46;2.65;;;1.75;;
44822;SDS011;51097;51.984;5.650;2023-06-04T04:46:11;3.90;;;1.95;;
44822;SDS011;51097;51.984;5.650;2023-06-04T04:48:37;4.93;;;2.38;;
44822;SDS011;51097;51.984;5.650;2023-06-04T04:51:03;2.85;;;2.05;;
44822;SDS011;51097;51.984;5.650;2023-06-04T04:53:29;3.58;;;1.73;;
44822;SDS011;51097;51.984;5.650;2023-06-04T04:55:54;5.18;;;2.25;;
44822;SDS011;51097;51.984;5.650;2023-06-04T04:58:20;3.72;;;2.13;;
44822;SDS011;51097;51.984;5.650;2023-06-04T05:00:46;4.50;;;2.53;;
44822;SDS011;51097;51.984;5.650;2023-06-04T05:03:12;3.70;;;1.85;;
44822;SDS011;51097;51.984;5.650;2023-06-04T05:05:38;3.28;;;2.42;;
44822;SDS011;51097;51.984;5.650;2023-06-04T05:08:04;2.28;;;1.48;;
44822;SDS011;51097;51.984;5.650;2023-06-04T05:10:30;7.03;;;2.17;;
44822;SDS011;51097;51.984;5.650;2023-06-04T05:12:59;3.42;;;2.60;;
44822;SDS011;51097;51.984;5.650;2023-06-04T05:15:26;3.25;;;2.10;;
44822;SDS011;51097;51.984;5.650;2023-06-04T05:17:51;6.55;;;2.25;;
44822;SDS011;51097;51.984;5.650;2023-06-04T05:20:17;4.40;;;2.55;;
44822;SDS011;51097;51.984;5.650;2023-06-04T05:22:45;3.03;;;2.33;;
44822;SDS011;51097;51.984;5.650;2023-06-04T05:25:11;4.55;;;2.55;;
44822;SDS011;51097;51.984;5.650;2023-06-04T05:27:37;4.72;;;2.45;;
44822;SDS011;51097;51.984;5.650;2023-06-04T05:30:03;4.50;;;2.53;;
44822;SDS011;51097;51.984;5.650;2023-06-04T05:32:29;3.00;;;2.30;;
44822;SDS011;51097;51.984;5.650;2023-06-04T05:34:57;3.60;;;2.60;;
44822;SDS011;51097;51.984;5.650;2023-06-04T05:37:24;4.63;;;2.10;;
44822;SDS011;51097;51.984;5.650;2023-06-04T05:39:51;5.03;;;2.30;;
44822;SDS011;51097;51.984;5.650;2023-06-04T05:42:17;5.68;;;2.50;;
44822;SDS011;51097;51.984;5.650;2023-06-04T05:44:43;4.10;;;2.20;;
44822;SDS011;51097;51.984;5.650;2023-06-04T05:47:09;5.15;;;2.15;;
44822;SDS011;51097;51.984;5.650;2023-06-04T05:49:35;6.07;;;2.40;;
44822;SDS011;51097;51.984;5.650;2023-06-04T05:52:00;6.78;;;2.20;;
44822;SDS011;51097;51.984;5.650;2023-06-04T05:54:26;2.97;;;2.22;;
44822;SDS011;51097;51.984;5.650;2023-06-04T05:56:53;4.85;;;2.17;;
44822;SDS011;51097;51.984;5.650;2023-06-04T05:59:19;4.25;;;2.58;;
44822;SDS011;51097;51.984;5.650;2023-06-04T06:01:44;4.72;;;2.38;;
44822;SDS011;51097;51.984;5.650;2023-06-04T06:04:10;4.40;;;2.35;;
44822;SDS011;51097;51.984;5.650;2023-06-04T06:06:37;2.47;;;1.70;;
44822;SDS011;51097;51.984;5.650;2023-06-04T06:09:02;5.28;;;2.08;;
44822;SDS011;51097;51.984;5.650;2023-06-04T06:11:28;6.35;;;2.03;;
44822;SDS011;51097;51.984;5.650;2023-06-04T06:13:54;3.25;;;1.95;;
44822;SDS011;51097;51.984;5.650;2023-06-04T06:16:19;3.33;;;1.95;;
44822;SDS011;51097;51.984;5.650;2023-06-04T06:18:45;3.90;;;1.83;;
44822;SDS011;51097;51.984;5.650;2023-06-04T06:21:11;2.88;;;1.67;;
44822;SDS011;51097;51.984;5.650;2023-06-04T06:23:36;8.13;;;2.50;;
44822;SDS011;51097;51.984;5.650;2023-06-04T06:26:02;4.13;;;2.38;;
44822;SDS011;51097;51.984;5.650;2023-06-04T06:28:28;4.25;;;1.70;;
44822;SDS011;51097;51.984;5.650;2023-06-04T06:30:54;4.15;;;2.00;;
44822;SDS011;51097;51.984;5.650;2023-06-04T06:33:20;3.20;;;2.25;;
44822;SDS011;51097;51.984;5.650;2023-06-04T06:35:48;2.63;;;1.80;;
44822;SDS011;51097;51.984;5.650;2023-06-04T06:38:24;4.13;;;1.77;;
44822;SDS011;51097;51.984;5.650;2023-06-04T06:40:56;2.17;;;1.20;;
44822;SDS011;51097;51.984;5.650;2023-06-04T06:43:22;3.58;;;2.03;;
44822;SDS011;51097;51.984;5.650;2023-06-04T06:45:47;3.20;;;1.45;;
44822;SDS011;51097;51.984;5.650;2023-06-04T06:48:13;2.92;;;1.42;;
44822;SDS011;51097;51.984;5.650;2023-06-04T06:50:39;2.90;;;1.73;;
44822;SDS011;51097;51.984;5.650;2023-06-04T06:53:04;3.92;;;1.45;;
44822;SDS011;51097;51.984;5.650;2023-06-04T06:55:30;3.00;;;1.40;;
44822;SDS011;51097;51.984;5.650;2023-06-04T06:57:55;4.80;;;1.70;;
44822;SDS011;51097;51.984;5.650;2023-06-04T07:00:21;2.65;;;1.40;;
44822;SDS011;51097;51.984;5.650;2023-06-04T07:02:47;3.47;;;1.52;;
44822;SDS011;51097;51.984;5.650;2023-06-04T07:05:13;5.47;;;1.75;;
44822;SDS011;51097;51.984;5.650;2023-06-04T07:07:40;6.05;;;1.65;;
44822;SDS011;51097;51.984;5.650;2023-06-04T07:10:06;2.63;;;1.45;;
44822;SDS011;51097;51.984;5.650;2023-06-04T07:12:32;2.75;;;1.30;;
44822;SDS011;51097;51.984;5.650;2023-06-04T07:14:57;2.22;;;1.50;;
44822;SDS011;51097;51.984;5.650;2023-06-04T07:17:23;1.95;;;1.20;;
44822;SDS011;51097;51.984;5.650;2023-06-04T07:19:48;3.58;;;1.38;;
44822;SDS011;51097;51.984;5.650;2023-06-04T07:22:14;3.70;;;1.77;;
44822;SDS011;51097;51.984;5.650;2023-06-04T07:24:42;3.45;;;1.25;;
44822;SDS011;51097;51.984;5.650;2023-06-04T07:27:11;1.52;;;1.27;;
44822;SDS011;51097;51.984;5.650;2023-06-04T07:29:38;4.00;;;1.63;;
44822;SDS011;51097;51.984;5.650;2023-06-04T07:32:03;2.80;;;1.20;;
44822;SDS011;51097;51.984;5.650;2023-06-04T07:34:29;3.35;;;1.20;;
44822;SDS011;51097;51.984;5.650;2023-06-04T07:36:55;2.58;;;1.45;;
44822;SDS011;51097;51.984;5.650;2023-06-04T07:39:20;2.55;;;1.27;;
44822;SDS011;51097;51.984;5.650;2023-06-04T07:41:46;3.83;;;1.55;;
44822;SDS011;51097;51.984;5.650;2023-06-04T07:44:12;5.13;;;1.27;;
44822;SDS011;51097;51.984;5.650;2023-06-04T07:46:37;2.25;;;1.13;;
44822;SDS011;51097;51.984;5.650;2023-06-04T07:49:03;4.07;;;1.10;;
44822;SDS011;51097;51.984;5.650;2023-06-04T07:51:28;2.55;;;1.00;;
44822;SDS011;51097;51.984;5.650;2023-06-04T07:53:54;2.33;;;1.42;;
44822;SDS011;51097;51.984;5.650;2023-06-04T07:56:20;2.17;;;1.08;;
44822;SDS011;51097;51.984;5.650;2023-06-04T07:58:46;3.80;;;1.25;;
44822;SDS011;51097;51.984;5.650;2023-06-04T08:01:11;2.50;;;1.17;;
44822;SDS011;51097;51.984;5.650;2023-06-04T08:03:37;4.90;;;1.38;;
44822;SDS011;51097;51.984;5.650;2023-06-04T08:06:03;2.75;;;1.17;;
44822;SDS011;51097;51.984;5.650;2023-06-04T08:08:29;3.08;;;1.15;;
44822;SDS011;51097;51.984;5.650;2023-06-04T08:10:54;2.50;;;0.93;;
44822;SDS011;51097;51.984;5.650;2023-06-04T08:13:20;3.42;;;1.23;;
44822;SDS011;51097;51.984;5.650;2023-06-04T08:15:45;2.85;;;1.15;;
44822;SDS011;51097;51.984;5.650;2023-06-04T08:18:11;2.10;;;0.93;;
44822;SDS011;51097;51.984;5.650;2023-06-04T08:20:37;1.25;;;1.02;;
44822;SDS011;51097;51.984;5.650;2023-06-04T08:23:02;2.25;;;1.10;;
44822;SDS011;51097;51.984;5.650;2023-06-04T08:25:28;2.60;;;0.90;;
44822;SDS011;51097;51.984;5.650;2023-06-04T08:27:55;1.45;;;0.90;;
44822;SDS011;51097;51.984;5.650;2023-06-04T08:30:20;2.13;;;1.60;;
44822;SDS011;51097;51.984;5.650;2023-06-04T08:32:46;2.88;;;1.05;;
44822;SDS011;51097;51.984;5.650;2023-06-04T08:35:12;1.20;;;1.00;;
44822;SDS011;51097;51.984;5.650;2023-06-04T08:37:37;2.78;;;1.27;;
44822;SDS011;51097;51.984;5.650;2023-06-04T08:40:03;2.72;;;1.05;;
44822;SDS011;51097;51.984;5.650;2023-06-04T08:42:31;1.88;;;1.10;;
44822;SDS011;51097;51.984;5.650;2023-06-04T08:45:07;1.73;;;1.20;;
44822;SDS011;51097;51.984;5.650;2023-06-04T08:47:36;4.30;;;1.25;;
44822;SDS011;51097;51.984;5.650;2023-06-04T08:50:03;3.55;;;1.20;;
44822;SDS011;51097;51.984;5.650;2023-06-04T08:52:34;3.42;;;1.35;;
44822;SDS011;51097;51.984;5.650;2023-06-04T08:55:00;2.10;;;1.35;;
44822;SDS011;51097;51.984;5.650;2023-06-04T08:57:27;3.20;;;1.30;;
44822;SDS011;51097;51.984;5.650;2023-06-04T08:59:55;4.25;;;1.20;;
44822;SDS011;51097;51.984;5.650;2023-06-04T09:02:21;5.28;;;1.20;;
44822;SDS011;51097;51.984;5.650;2023-06-04T09:04:47;2.20;;;1.33;;
44822;SDS011;51097;51.984;5.650;2023-06-04T09:07:13;1.88;;;1.10;;
44822;SDS011;51097;51.984;5.650;2023-06-04T09:09:39;2.80;;;1.48;;
44822;SDS011;51097;51.984;5.650;2023-06-04T09:12:11;3.40;;;0.95;;
44822;SDS011;51097;51.984;5.650;2023-06-04T09:14:40;3.03;;;1.00;;
44822;SDS011;51097;51.984;5.650;2023-06-04T09:17:05;2.05;;;0.98;;
44822;SDS011;51097;51.984;5.650;2023-06-04T09:19:31;1.75;;;1.10;;
44822;SDS011;51097;51.984;5.650;2023-06-04T09:21:57;1.83;;;1.08;;
44822;SDS011;51097;51.984;5.650;2023-06-04T09:24:37;1.52;;;0.80;;
44822;SDS011;51097;51.984;5.650;2023-06-04T09:27:18;1.50;;;1.00;;
44822;SDS011;51097;51.984;5.650;2023-06-04T09:29:50;2.60;;;0.95;;
44822;SDS011;51097;51.984;5.650;2023-06-04T09:32:22;1.83;;;1.00;;
44822;SDS011;51097;51.984;5.650;2023-06-04T09:34:48;2.83;;;0.73;;
44822;SDS011;51097;51.984;5.650;2023-06-04T09:37:15;4.80;;;1.42;;
44822;SDS011;51097;51.984;5.650;2023-06-04T09:39:42;2.58;;;1.10;;
44822;SDS011;51097;51.984;5.650;2023-06-04T09:42:08;3.17;;;1.60;;
44822;SDS011;51097;51.984;5.650;2023-06-04T09:44:42;1.55;;;1.00;;
44822;SDS011;51097;51.984;5.650;2023-06-04T09:47:10;1.40;;;0.98;;
44822;SDS011;51097;51.984;5.650;2023-06-04T09:49:42;1.00;;;0.90;;
44822;SDS011;51097;51.984;5.650;2023-06-04T09:52:08;3.50;;;1.00;;
44822;SDS011;51097;51.984;5.650;2023-06-04T09:54:37;1.65;;;1.00;;
44822;SDS011;51097;51.984;5.650;2023-06-04T09:59:45;1.67;;;0.80;;
44822;SDS011;51097;51.984;5.650;2023-06-04T10:02:11;1.05;;;0.98;;
44822;SDS011;51097;51.984;5.650;2023-06-04T10:04:41;2.00;;;1.50;;
44822;SDS011;51097;51.984;5.650;2023-06-04T10:07:11;2.47;;;0.80;;
44822;SDS011;51097;51.984;5.650;2023-06-04T10:09:38;1.10;;;0.95;;
44822;SDS011;51097;51.984;5.650;2023-06-04T10:12:10;1.10;;;0.77;;
44822;SDS011;51097;51.984;5.650;2023-06-04T10:14:45;1.13;;;0.93;;
44822;SDS011;51097;51.984;5.650;2023-06-04T10:17:17;1.42;;;0.88;;
44822;SDS011;51097;51.984;5.650;2023-06-04T10:19:46;1.15;;;0.90;;
44822;SDS011;51097;51.984;5.650;2023-06-04T10:22:14;1.73;;;1.27;;
44822;SDS011;51097;51.984;5.650;2023-06-04T10:24:40;2.17;;;1.05;;
44822;SDS011;51097;51.984;5.650;2023-06-04T10:27:05;1.70;;;1.30;;
44822;SDS011;51097;51.984;5.650;2023-06-04T10:29:36;2.50;;;1.80;;
44822;SDS011;51097;51.984;5.650;2023-06-04T10:32:02;4.35;;;2.20;;
44822;SDS011;51097;51.984;5.650;2023-06-04T10:34:28;1.13;;;1.02;;
44822;SDS011;51097;51.984;5.650;2023-06-04T10:36:54;2.20;;;1.20;;
44822;SDS011;51097;51.984;5.650;2023-06-04T10:39:27;5.28;;;1.27;;
44822;SDS011;51097;51.984;5.650;2023-06-04T10:42:03;2.65;;;1.30;;
44822;SDS011;51097;51.984;5.650;2023-06-04T10:44:47;1.92;;;1.27;;
44822;SDS011;51097;51.984;5.650;2023-06-04T10:47:23;1.58;;;1.45;;
44822;SDS011;51097;51.984;5.650;2023-06-04T10:49:50;3.28;;;1.40;;
44822;SDS011;51097;51.984;5.650;2023-06-04T10:52:17;3.65;;;1.65;;
44822;SDS011;51097;51.984;5.650;2023-06-04T10:54:44;1.48;;;1.27;;
44822;SDS011;51097;51.984;5.650;2023-06-04T11:02:21;1.92;;;1.55;;
44822;SDS011;51097;51.984;5.650;2023-06-04T11:04:46;1.48;;;1.20;;
44822;SDS011;51097;51.984;5.650;2023-06-04T11:07:22;4.20;;;1.10;;
44822;SDS011;51097;51.984;5.650;2023-06-04T11:09:48;1.70;;;1.00;;
44822;SDS011;51097;51.984;5.650;2023-06-04T11:12:15;2.00;;;1.27;;
44822;SDS011;51097;51.984;5.650;2023-06-04T11:14:40;3.70;;;1.30;;
44822;SDS011;51097;51.984;5.650;2023-06-04T11:17:18;2.95;;;1.40;;
44822;SDS011;51097;51.984;5.650;2023-06-04T11:19:43;1.35;;;1.00;;
44822;SDS011;51097;51.984;5.650;2023-06-04T11:22:12;3.13;;;1.48;;
44822;SDS011;51097;51.984;5.650;2023-06-04T11:24:38;3.28;;;1.15;;
44822;SDS011;51097;51.984;5.650;2023-06-04T11:27:03;1.75;;;1.15;;
44822;SDS011;51097;51.984;5.650;2023-06-04T11:29:29;1.85;;;1.23;;
44822;SDS011;51097;51.984;5.650;2023-06-04T11:31:55;1.83;;;1.25;;
44822;SDS011;51097;51.984;5.650;2023-06-04T11:34:27;4.30;;;1.67;;
44822;SDS011;51097;51.984;5.650;2023-06-04T11:36:54;5.47;;;1.75;;
44822;SDS011;51097;51.984;5.650;2023-06-04T11:39:20;1.98;;;1.10;;
44822;SDS011;51097;51.984;5.650;2023-06-04T11:41:46;2.63;;;1.50;;
44822;SDS011;51097;51.984;5.650;2023-06-04T11:44:13;3.60;;;2.33;;
44822;SDS011;51097;51.984;5.650;2023-06-04T11:46:40;5.80;;;1.73;;
44822;SDS011;51097;51.984;5.650;2023-06-04T11:49:08;1.97;;;1.20;;
44822;SDS011;51097;51.984;5.650;2023-06-04T11:51:37;2.85;;;1.05;;
44822;SDS011;51097;51.984;5.650;2023-06-04T11:54:03;1.98;;;1.10;;
44822;SDS011;51097;51.984;5.650;2023-06-04T11:56:29;1.80;;;1.35;;
44822;SDS011;51097;51.984;5.650;2023-06-04T11:58:54;2.25;;;1.52;;
44822;SDS011;51097;51.984;5.650;2023-06-04T12:01:20;2.40;;;1.27;;
44822;SDS011;51097;51.984;5.650;2023-06-04T12:03:47;1.30;;;1.20;;
44822;SDS011;51097;51.984;5.650;2023-06-04T12:06:17;4.18;;;1.58;;
44822;SDS011;51097;51.984;5.650;2023-06-04T12:08:45;4.68;;;1.33;;
44822;SDS011;51097;51.984;5.650;2023-06-04T12:11:33;3.60;;;1.58;;
44822;SDS011;51097;51.984;5.650;2023-06-04T12:13:58;2.25;;;1.08;;
44822;SDS011;51097;51.984;5.650;2023-06-04T12:16:25;2.78;;;1.90;;
44822;SDS011;51097;51.984;5.650;2023-06-04T12:18:51;3.03;;;1.92;;
44822;SDS011;51097;51.984;5.650;2023-06-04T12:21:21;4.82;;;4.22;;
44822;SDS011;51097;51.984;5.650;2023-06-04T12:24:05;5.00;;;2.63;;
44822;SDS011;51097;51.984;5.650;2023-06-04T12:26:31;1.50;;;1.20;;
44822;SDS011;51097;51.984;5.650;2023-06-04T12:28:59;1.75;;;1.40;;
44822;SDS011;51097;51.984;5.650;2023-06-04T12:31:35;1.52;;;1.02;;
44822;SDS011;51097;51.984;5.650;2023-06-04T12:34:02;1.33;;;1.13;;
44822;SDS011;51097;51.984;5.650;2023-06-04T12:36:27;4.07;;;1.67;;
44822;SDS011;51097;51.984;5.650;2023-06-04T12:38:58;2.17;;;1.30;;
44822;SDS011;51097;51.984;5.650;2023-06-04T12:41:25;1.60;;;1.15;;
44822;SDS011;51097;51.984;5.650;2023-06-04T12:43:54;2.33;;;1.42;;
44822;SDS011;51097;51.984;5.650;2023-06-04T12:46:21;4.07;;;1.38;;
44822;SDS011;51097;51.984;5.650;2023-06-04T12:48:47;2.30;;;1.40;;
44822;SDS011;51097;51.984;5.650;2023-06-04T12:51:17;3.17;;;1.33;;
44822;SDS011;51097;51.984;5.650;2023-06-04T12:53:43;1.27;;;1.10;;
44822;SDS011;51097;51.984;5.650;2023-06-04T12:56:09;1.65;;;1.55;;
44822;SDS011;51097;51.984;5.650;2023-06-04T12:58:35;2.92;;;1.70;;
44822;SDS011;51097;51.984;5.650;2023-06-04T13:01:01;3.88;;;1.60;;
44822;SDS011;51097;51.984;5.650;2023-06-04T13:03:27;1.38;;;1.27;;
44822;SDS011;51097;51.984;5.650;2023-06-04T13:05:52;2.25;;;1.55;;
44822;SDS011;51097;51.984;5.650;2023-06-04T13:08:21;2.33;;;1.50;;
44822;SDS011;51097;51.984;5.650;2023-06-04T13:10:47;2.20;;;1.60;;
44822;SDS011;51097;51.984;5.650;2023-06-04T13:13:14;2.05;;;1.60;;
44822;SDS011;51097;51.984;5.650;2023-06-04T13:15:41;3.30;;;1.52;;
44822;SDS011;51097;51.984;5.650;2023-06-04T13:18:08;5.47;;;1.70;;
44822;SDS011;51097;51.984;5.650;2023-06-04T13:20:34;1.90;;;1.40;;
44822;SDS011;51097;51.984;5.650;2023-06-04T13:23:00;2.53;;;1.70;;
44822;SDS011;51097;51.984;5.650;2023-06-04T13:25:25;2.45;;;1.27;;
44822;SDS011;51097;51.984;5.650;2023-06-04T13:27:53;1.98;;;1.50;;
44822;SDS011;51097;51.984;5.650;2023-06-04T13:30:19;3.08;;;1.88;;
44822;SDS011;51097;51.984;5.650;2023-06-04T13:32:44;2.60;;;1.50;;
44822;SDS011;51097;51.984;5.650;2023-06-04T13:35:10;3.92;;;1.60;;
44822;SDS011;51097;51.984;5.650;2023-06-04T13:37:35;3.45;;;1.35;;
44822;SDS011;51097;51.984;5.650;2023-06-04T13:40:01;2.47;;;1.15;;
44822;SDS011;51097;51.984;5.650;2023-06-04T13:42:27;2.70;;;1.60;;
44822;SDS011;51097;51.984;5.650;2023-06-04T13:44:52;1.92;;;1.40;;
44822;SDS011;51097;51.984;5.650;2023-06-04T13:47:18;1.60;;;1.50;;
44822;SDS011;51097;51.984;5.650;2023-06-04T13:49:43;1.63;;;1.35;;
44822;SDS011;51097;51.984;5.650;2023-06-04T13:52:09;3.58;;;1.80;;
44822;SDS011;51097;51.984;5.650;2023-06-04T13:54:34;1.60;;;1.48;;
44822;SDS011;51097;51.984;5.650;2023-06-04T13:57:03;2.72;;;1.63;;
44822;SDS011;51097;51.984;5.650;2023-06-04T13:59:29;4.55;;;2.72;;
44822;SDS011;51097;51.984;5.650;2023-06-04T14:01:56;3.10;;;1.85;;
44822;SDS011;51097;51.984;5.650;2023-06-04T14:04:21;2.35;;;1.70;;
44822;SDS011;51097;51.984;5.650;2023-06-04T14:06:47;1.65;;;1.30;;
44822;SDS011;51097;51.984;5.650;2023-06-04T14:09:13;3.42;;;1.50;;
44822;SDS011;51097;51.984;5.650;2023-06-04T14:11:38;2.00;;;1.40;;
44822;SDS011;51097;51.984;5.650;2023-06-04T14:14:05;2.38;;;1.73;;
44822;SDS011;51097;51.984;5.650;2023-06-04T14:16:31;1.83;;;1.27;;
44822;SDS011;51097;51.984;5.650;2023-06-04T14:18:56;2.90;;;1.38;;
44822;SDS011;51097;51.984;5.650;2023-06-04T14:21:22;2.70;;;1.50;;
44822;SDS011;51097;51.984;5.650;2023-06-04T14:23:47;1.80;;;1.42;;
44822;SDS011;51097;51.984;5.650;2023-06-04T14:26:14;1.48;;;1.38;;
44822;SDS011;51097;51.984;5.650;2023-06-04T14:28:42;1.50;;;1.30;;
44822;SDS011;51097;51.984;5.650;2023-06-04T14:31:08;1.83;;;1.50;;
44822;SDS011;51097;51.984;5.650;2023-06-04T14:33:34;2.58;;;1.45;;
44822;SDS011;51097;51.984;5.650;2023-06-04T14:36:02;2.97;;;1.65;;
44822;SDS011;51097;51.984;5.650;2023-06-04T14:38:28;2.13;;;1.42;;
44822;SDS011;51097;51.984;5.650;2023-06-04T14:40:53;1.92;;;1.40;;
44822;SDS011;51097;51.984;5.650;2023-06-04T14:43:21;2.47;;;1.08;;
44822;SDS011;51097;51.984;5.650;2023-06-04T14:45:47;2.45;;;1.27;;
44822;SDS011;51097;51.984;5.650;2023-06-04T14:48:13;1.38;;;1.25;;
44822;SDS011;51097;51.984;5.650;2023-06-04T14:50:39;1.83;;;1.58;;
44822;SDS011;51097;51.984;5.650;2023-06-04T14:53:04;1.70;;;1.50;;
44822;SDS011;51097;51.984;5.650;2023-06-04T14:55:32;3.47;;;1.80;;
44822;SDS011;51097;51.984;5.650;2023-06-04T14:57:58;2.92;;;1.17;;
44822;SDS011;51097;51.984;5.650;2023-06-04T15:00:24;2.03;;;1.60;;